Ceredo, WV

9:41 AM EDT on July 06, 2015 (GMT -0400)
Tri-State / Ferguson | | Change Station
CLOSE
Current Station
Airport
Location: Huntington,
Elevation: 837 ft
Nearby Weather Stations

Elev 837 ft 38.37 °N, 82.56 °W | Updated 7 minutes ago

Overcast
Overcast
72 °F
Feels Like 72 °F
N
6
Wind Variable Wind from WSW

Today
High -- | Low -- °F
--% Chance of Precip.
Yesterday
High -- | Low -- °F
Precip. -- in
6:12 AM 8:57 PM
Waning Gibbous, 75% visible
Pressure 30.10 in
Visibility 6.0 miles
Clouds Scattered Clouds 500 ft
Mostly Cloudy 6000 ft
Mostly Cloudy 8500 ft
Dew Point 68 °F
Humidity 87%
Rainfall 0.00 in
Snow Depth Not available.
UV 2 out of 12
Pollen .30 out of 12
Air Quality Not available.
Flu Activity Not available.
SPECI KHTS 061334Z 25005KT 6SM BR SCT005 BKN060 BKN085 22/20 A3010 RMK AO2 T02220200

More Conditions Fewer Conditions

Pressure 30.10 in
Visibility 6.0 miles
Clouds Scattered Clouds 500 ft
Mostly Cloudy 6000 ft
Mostly Cloudy 8500 ft
Dew Point 68 °F
Humidity 87%
Rainfall 0.00 in
Snow Depth Not available.
UV 2 out of 12
Pollen .30 out of 12
Air Quality Not available.
Flu Activity Not available.
SPECI KHTS 061334Z 25005KT 6SM BR SCT005 BKN060 BKN085 22/20 A3010 RMK AO2 T02220200

More Conditions Fewer Conditions

10-Day Weather Forecast

×

Almanac

Astronomy

Jul. 06, 2015 Rise Set
Actual Time
Civil Twilight
Nautical Twilight
Astronomical Twilight
Moon
Length of Visible Light
Length of Day
Tomorrow will be .
, % of the Moon is Illuminated

Today's Extremes

State Highs State Lows

Community

WunderPhotos

Upload Photos

1,835,558 photos uploaded!

WunderBlogs® & News

Nearby

Air Quality

  Air Quality AQ Index Pollutant
Not available.

Snow Depth

Station Depth Elevation

Earthquake Activity

City Distance Mag. Time & Date
Minimum magnitude displayed is 2.5.

Coastal Water Temperatures

Place Temperature

Stations

Nearby Weather Stations

Station Location Temp. Windchill Dew Point Humidity Wind Precip. Elev Updated Type